createdAt,value
2022-10-13T00:00:32.226Z,92.40
2022-10-13T00:03:03.178Z,91.90
2022-10-13T00:05:31.467Z,92.20
2022-10-13T00:07:58.664Z,92.40
2022-10-13T00:10:26.140Z,92.50
2022-10-13T00:12:53.301Z,92.60
2022-10-13T00:15:20.196Z,92.50
2022-10-13T00:17:46.955Z,92.70
2022-10-13T00:20:13.690Z,92.70
2022-10-13T00:22:40.486Z,92.70
2022-10-13T00:25:07.715Z,92.50
2022-10-13T00:27:34.458Z,92.70
2022-10-13T00:30:01.321Z,92.50
2022-10-13T00:32:28.796Z,92.70
2022-10-13T00:34:56.392Z,92.50
2022-10-13T00:37:23.585Z,92.40
2022-10-13T00:39:50.445Z,92.30
2022-10-13T00:42:17.643Z,92.50
2022-10-13T00:45:07.528Z,92.80
2022-10-13T00:47:45.042Z,93.00
2022-10-13T00:50:18.289Z,93.10
2022-10-13T00:52:45.296Z,93.00
2022-10-13T00:55:16.753Z,93.20
2022-10-13T00:57:46.279Z,93.10
2022-10-13T01:00:13.476Z,93.10
2022-10-13T01:02:40.242Z,92.90
2022-10-13T01:05:07.960Z,92.70
2022-10-13T01:07:35.877Z,92.80
2022-10-13T01:10:04.174Z,92.90
2022-10-13T01:12:55.586Z,92.70
2022-10-13T01:15:32.210Z,92.50
2022-10-13T01:18:25.263Z,92.50
2022-10-13T01:21:31.676Z,92.40
2022-10-13T01:24:21.670Z,92.60
2022-10-13T01:26:59.303Z,92.60
2022-10-13T01:29:54.785Z,92.80
2022-10-13T01:32:41.908Z,92.90
2022-10-13T01:35:14.504Z,92.80
2022-10-13T01:37:49.312Z,92.80
2022-10-13T01:40:25.700Z,92.90
2022-10-13T01:43:04.163Z,92.50
2022-10-13T01:45:38.599Z,92.20
2022-10-13T01:48:07.379Z,92.40
2022-10-13T01:50:36.537Z,92.50
2022-10-13T01:53:06.012Z,92.70
2022-10-13T01:55:32.811Z,92.70
2022-10-13T01:57:59.660Z,92.70
2022-10-13T02:00:26.645Z,92.70
2022-10-13T02:03:40.086Z,92.70
2022-10-13T02:06:20.997Z,92.50
2022-10-13T02:09:08.591Z,92.40
2022-10-13T02:11:35.401Z,92.50
2022-10-13T02:14:18.112Z,92.50
2022-10-13T02:16:46.971Z,92.70
2022-10-13T02:19:17.116Z,92.80
2022-10-13T02:21:44.430Z,92.90
2022-10-13T02:24:12.240Z,92.90
2022-10-13T02:26:40.899Z,92.90
2022-10-13T02:29:16.680Z,92.90
2022-10-13T02:31:44.886Z,92.80
2022-10-13T02:34:12.644Z,92.80
2022-10-13T02:36:39.754Z,93.20
2022-10-13T02:39:10.914Z,93.50
2022-10-13T02:41:37.853Z,93.70
2022-10-13T02:44:05.536Z,93.70
2022-10-13T02:46:32.432Z,93.40
2022-10-13T02:48:59.248Z,93.40
2022-10-13T02:51:26.061Z,93.40
2022-10-13T02:53:52.816Z,93.40
2022-10-13T02:56:19.559Z,93.40
2022-10-13T02:58:46.287Z,93.30
2022-10-13T03:01:15.267Z,93.30
2022-10-13T03:03:42.666Z,93.20
2022-10-13T03:06:09.530Z,93.20
2022-10-13T03:08:37.812Z,93.20
2022-10-13T03:11:04.660Z,93.20
2022-10-13T03:13:31.510Z,93.40
2022-10-13T03:15:59.789Z,93.40
2022-10-13T03:18:26.614Z,93.40
2022-10-13T03:21:01.439Z,93.20
2022-10-13T03:23:28.808Z,93.40
2022-10-13T03:25:56.318Z,93.50
2022-10-13T03:28:23.217Z,93.30
2022-10-13T03:30:50.232Z,93.40
2022-10-13T03:33:17.064Z,93.30
2022-10-13T03:35:43.860Z,93.30
2022-10-13T03:38:11.422Z,93.30
2022-10-13T03:40:38.210Z,93.10
2022-10-13T03:43:04.923Z,93.20
2022-10-13T03:45:31.651Z,93.40
2022-10-13T03:47:58.729Z,93.50
2022-10-13T03:50:25.873Z,93.60
2022-10-13T03:52:52.608Z,93.50
2022-10-13T03:55:19.386Z,93.50
2022-10-13T03:57:46.121Z,93.60
2022-10-13T04:00:13.765Z,93.80
2022-10-13T04:02:40.500Z,93.90
2022-10-13T04:05:07.496Z,93.80
2022-10-13T04:07:34.444Z,93.70
2022-10-13T04:10:01.163Z,93.60
2022-10-13T04:12:28.195Z,93.70
2022-10-13T04:14:54.934Z,93.50
2022-10-13T04:17:21.712Z,93.40
2022-10-13T04:19:48.523Z,93.60
2022-10-13T04:22:15.270Z,93.50
2022-10-13T04:24:42.159Z,93.40
2022-10-13T04:27:08.916Z,93.50
2022-10-13T04:29:35.634Z,93.50
2022-10-13T04:32:02.443Z,93.60
2022-10-13T04:34:29.400Z,93.60
2022-10-13T04:36:56.120Z,93.50
2022-10-13T04:39:22.828Z,93.60
2022-10-13T04:41:50.684Z,93.40
2022-10-13T04:44:17.437Z,93.20
2022-10-13T04:46:44.199Z,93.40
2022-10-13T04:49:11.038Z,93.30
2022-10-13T04:51:38.146Z,93.50
2022-10-13T04:54:05.607Z,93.40
2022-10-13T04:56:32.626Z,93.30
2022-10-13T04:58:59.990Z,93.40
2022-10-13T05:01:27.145Z,93.40
2022-10-13T05:03:57.767Z,93.40
2022-10-13T05:06:27.537Z,93.40
2022-10-13T05:08:54.718Z,93.50
2022-10-13T05:11:21.639Z,93.20
2022-10-13T05:13:49.084Z,93.20
2022-10-13T05:16:17.688Z,93.40
2022-10-13T05:18:45.047Z,93.50
2022-10-13T05:21:17.760Z,93.40
2022-10-13T05:23:45.576Z,93.30
2022-10-13T05:26:15.455Z,93.30
2022-10-13T05:28:42.882Z,93.40
2022-10-13T05:31:22.357Z,93.30
2022-10-13T05:33:50.216Z,93.40
2022-10-13T05:36:19.804Z,93.30
2022-10-13T05:38:54.547Z,93.40
2022-10-13T05:41:23.051Z,93.60
2022-10-13T05:43:53.295Z,93.20
2022-10-13T05:46:20.044Z,93.20
2022-10-13T05:48:47.461Z,93.20
2022-10-13T05:51:17.870Z,93.20
2022-10-13T05:53:54.175Z,93.00
2022-10-13T05:56:29.926Z,92.90
2022-10-13T05:59:01.584Z,93.00
2022-10-13T06:01:32.768Z,93.20
2022-10-13T06:04:04.547Z,93.00
2022-10-13T06:06:31.873Z,93.00
2022-10-13T06:09:00.200Z,92.90
2022-10-13T06:11:27.434Z,92.60
2022-10-13T06:13:54.153Z,93.00
2022-10-13T06:16:20.854Z,93.00
2022-10-13T06:18:47.591Z,93.00
2022-10-13T06:21:14.453Z,92.80
2022-10-13T06:23:41.188Z,92.80
2022-10-13T06:26:09.032Z,93.00
2022-10-13T06:28:35.944Z,92.80
2022-10-13T06:31:05.595Z,92.80
2022-10-13T06:33:32.962Z,92.60
2022-10-13T06:36:04.832Z,92.20
2022-10-13T06:38:32.615Z,92.40
2022-10-13T06:41:01.013Z,92.30
2022-10-13T06:43:35.734Z,92.20
2022-10-13T06:46:06.822Z,92.20
2022-10-13T06:48:34.134Z,92.30
2022-10-13T06:51:02.456Z,92.10
2022-10-13T06:53:29.551Z,92.30
2022-10-13T06:55:57.999Z,92.30
2022-10-13T06:58:24.943Z,92.40
2022-10-13T07:00:52.534Z,92.30
2022-10-13T07:03:20.273Z,91.90
2022-10-13T07:05:47.072Z,91.60
2022-10-13T07:08:13.986Z,91.50
2022-10-13T07:10:41.524Z,91.30
2022-10-13T07:13:08.446Z,91.20
2022-10-13T07:15:40.831Z,91.10
2022-10-13T07:18:08.216Z,91.30
2022-10-13T07:20:36.049Z,91.50
2022-10-13T07:23:02.900Z,91.60
2022-10-13T07:25:29.956Z,91.30
2022-10-13T07:27:58.850Z,91.40
2022-10-13T07:30:26.185Z,91.50
2022-10-13T07:32:53.168Z,91.50
2022-10-13T07:35:19.997Z,91.40
2022-10-13T07:37:46.725Z,91.00
2022-10-13T07:40:13.533Z,90.60
2022-10-13T07:42:40.328Z,90.30
2022-10-13T07:45:07.680Z,90.40
2022-10-13T07:47:34.463Z,90.40
2022-10-13T07:50:01.188Z,90.10
2022-10-13T07:52:27.931Z,89.50
2022-10-13T07:54:55.836Z,89.30
2022-10-13T07:57:26.494Z,88.90
2022-10-13T07:59:53.825Z,88.00
2022-10-13T08:02:21.244Z,88.10
2022-10-13T08:04:48.554Z,87.80
2022-10-13T08:07:16.448Z,87.60
2022-10-13T08:09:43.393Z,87.20
2022-10-13T08:12:11.058Z,87.10
2022-10-13T08:14:37.980Z,86.90
2022-10-13T08:17:04.855Z,87.10
2022-10-13T08:19:31.638Z,86.60
2022-10-13T08:21:59.489Z,86.80
2022-10-13T08:24:27.400Z,86.50
2022-10-13T08:26:54.559Z,86.50
2022-10-13T08:29:23.014Z,85.60
2022-10-13T08:31:51.602Z,86.00
2022-10-13T08:34:18.683Z,85.90
2022-10-13T08:36:45.511Z,85.50
2022-10-13T08:39:13.858Z,84.70
2022-10-13T08:41:46.027Z,84.30
2022-10-13T08:47:27.676Z,83.80
2022-10-13T08:50:01.148Z,84.20
2022-10-13T08:52:41.878Z,84.10
2022-10-13T08:55:24.728Z,83.00
2022-10-13T08:57:51.954Z,84.00
2022-10-13T09:00:19.070Z,83.50
2022-10-13T09:02:51.610Z,84.10
2022-10-13T09:05:41.273Z,83.50
2022-10-13T09:08:17.113Z,83.10
2022-10-13T09:10:51.699Z,83.40
2022-10-13T09:13:18.949Z,83.20
2022-10-13T09:15:48.345Z,83.10
2022-10-13T09:18:15.216Z,83.60
2022-10-13T09:20:42.548Z,82.40
2022-10-13T09:23:22.455Z,83.20
2022-10-13T09:25:51.755Z,83.30
2022-10-13T09:28:28.636Z,83.70
2022-10-13T09:31:10.323Z,83.80
2022-10-13T09:33:40.071Z,83.20
2022-10-13T09:36:12.543Z,83.20
2022-10-13T09:38:41.599Z,82.40
2022-10-13T09:41:16.307Z,82.80
2022-10-13T09:43:46.133Z,82.60
2022-10-13T09:46:22.574Z,83.10
2022-10-13T09:48:53.036Z,82.50
2022-10-13T09:51:38.757Z,82.70
2022-10-13T09:54:07.208Z,83.50
2022-10-13T09:56:48.823Z,82.20
2022-10-13T09:59:31.196Z,82.80
2022-10-13T10:01:58.646Z,82.50
2022-10-13T10:04:38.515Z,82.50
2022-10-13T10:07:15.994Z,82.80
2022-10-13T10:09:51.157Z,83.40
2022-10-13T10:12:27.580Z,83.10
2022-10-13T10:14:54.954Z,82.80
2022-10-13T10:17:40.407Z,82.70
2022-10-13T10:20:41.597Z,83.30
2022-10-13T10:23:25.525Z,82.80
2022-10-13T10:26:06.020Z,83.10
2022-10-13T10:28:47.529Z,82.50
2022-10-13T10:31:39.186Z,82.10
2022-10-13T10:34:33.827Z,82.20
2022-10-13T10:37:21.358Z,81.60
2022-10-13T10:40:00.260Z,81.30
2022-10-13T10:42:51.174Z,82.20
2022-10-13T10:45:30.113Z,81.30
2022-10-13T10:48:01.303Z,81.20
2022-10-13T10:50:30.760Z,81.20
2022-10-13T10:53:18.984Z,81.00
2022-10-13T10:56:06.931Z,80.00
2022-10-13T10:59:05.381Z,80.90
2022-10-13T11:01:50.875Z,80.50
2022-10-13T11:04:41.918Z,80.80
2022-10-13T11:07:13.031Z,80.70
2022-10-13T11:09:42.794Z,80.90
2022-10-13T11:12:22.182Z,81.30
2022-10-13T11:15:02.057Z,81.60
2022-10-13T11:17:36.959Z,81.30
2022-10-13T11:20:36.254Z,81.40
2022-10-13T11:23:02.946Z,81.60
2022-10-13T11:25:42.367Z,81.20
2022-10-13T11:28:22.663Z,81.40
2022-10-13T11:30:52.280Z,81.50
2022-10-13T11:33:38.360Z,81.50
2022-10-13T11:36:42.752Z,82.10
2022-10-13T11:42:12.300Z,81.30
2022-10-13T11:47:58.437Z,82.30
2022-10-13T11:50:48.465Z,81.50
2022-10-13T11:53:52.094Z,81.10
2022-10-13T11:56:48.240Z,81.30
2022-10-13T11:59:20.234Z,81.60
2022-10-13T12:01:47.067Z,82.10
2022-10-13T12:04:15.276Z,82.20
2022-10-13T12:06:44.799Z,81.40
2022-10-13T12:09:20.075Z,81.80
2022-10-13T12:11:55.215Z,80.90
2022-10-13T12:14:50.645Z,81.50
2022-10-13T12:17:23.777Z,82.20
2022-10-13T12:19:53.627Z,83.20
2022-10-13T12:22:21.237Z,82.90
2022-10-13T12:25:03.229Z,81.90
2022-10-13T12:27:33.173Z,82.30
2022-10-13T12:30:00.971Z,81.50
2022-10-13T12:32:30.370Z,80.30
2022-10-13T12:35:10.279Z,80.80
2022-10-13T12:37:37.299Z,80.50
2022-10-13T12:40:04.953Z,81.30
2022-10-13T12:42:35.933Z,80.50
2022-10-13T12:45:03.796Z,79.30
2022-10-13T12:47:51.745Z,80.60
2022-10-13T12:50:21.630Z,80.00
2022-10-13T12:52:50.188Z,80.40
2022-10-13T12:55:19.143Z,79.50
2022-10-13T12:57:47.843Z,80.50
2022-10-13T13:00:26.725Z,80.90
2022-10-13T13:03:03.648Z,81.00
2022-10-13T13:05:32.156Z,80.60
2022-10-13T13:07:59.396Z,80.90
2022-10-13T13:10:26.435Z,81.20
2022-10-13T13:12:54.885Z,81.40
2022-10-13T13:15:24.696Z,81.20
2022-10-13T13:17:58.244Z,81.60
2022-10-13T13:20:31.211Z,82.70
2022-10-13T13:22:58.336Z,81.60
2022-10-13T13:25:25.541Z,82.30
2022-10-13T13:27:52.642Z,82.40
2022-10-13T13:30:23.358Z,82.20
2022-10-13T13:32:50.897Z,81.70
2022-10-13T13:35:18.041Z,81.30
2022-10-13T13:37:49.843Z,82.30
2022-10-13T13:40:23.223Z,82.00
2022-10-13T13:42:50.412Z,82.00
2022-10-13T13:45:19.613Z,82.90
2022-10-13T13:47:46.847Z,83.30
2022-10-13T13:50:26.824Z,83.50
2022-10-13T13:52:53.810Z,83.40
2022-10-13T13:55:20.661Z,83.20
2022-10-13T13:57:47.516Z,83.40
2022-10-13T14:00:15.519Z,82.40
2022-10-13T14:02:43.678Z,82.30
2022-10-13T14:05:11.212Z,82.50
2022-10-13T14:07:38.612Z,82.50
2022-10-13T14:10:06.546Z,81.80
2022-10-13T14:12:34.195Z,81.50
2022-10-13T14:15:01.307Z,81.20
2022-10-13T14:17:28.880Z,81.60
2022-10-13T14:19:55.837Z,81.30
2022-10-13T14:22:23.270Z,81.80
2022-10-13T14:24:50.390Z,81.50
2022-10-13T14:27:17.122Z,81.50
2022-10-13T14:29:44.083Z,80.90
2022-10-13T14:32:10.901Z,80.10
2022-10-13T14:34:37.704Z,80.60
2022-10-13T14:37:04.747Z,80.70
2022-10-13T14:39:31.466Z,80.70
2022-10-13T14:41:58.210Z,82.70
2022-10-13T14:44:25.030Z,82.30
2022-10-13T14:46:51.798Z,82.70
2022-10-13T14:49:18.572Z,82.70
2022-10-13T14:51:45.403Z,82.80
2022-10-13T14:54:12.189Z,83.00
2022-10-13T14:56:39.072Z,83.30
2022-10-13T14:59:07.236Z,83.80
2022-10-13T15:01:34.388Z,83.80
2022-10-13T15:04:02.494Z,83.80
2022-10-13T15:06:29.665Z,84.20
2022-10-13T15:08:57.137Z,84.20
2022-10-13T15:11:25.502Z,84.30
2022-10-13T15:13:53.099Z,84.40
2022-10-13T15:16:23.155Z,84.40
2022-10-13T15:18:50.767Z,84.40
2022-10-13T15:21:18.096Z,84.40
2022-10-13T15:23:45.352Z,83.90
2022-10-13T15:26:14.101Z,84.10
2022-10-13T15:28:46.424Z,84.20
2022-10-13T15:31:14.548Z,84.40
2022-10-13T15:33:45.893Z,84.50
2022-10-13T15:36:13.071Z,84.40
2022-10-13T15:38:40.231Z,84.90
2022-10-13T15:41:07.639Z,84.50
2022-10-13T15:43:34.770Z,84.30
2022-10-13T15:46:04.676Z,84.60
2022-10-13T15:48:32.438Z,84.70
2022-10-13T15:50:59.352Z,84.50
2022-10-13T15:53:26.758Z,84.40
2022-10-13T15:55:53.546Z,83.60
2022-10-13T15:58:20.294Z,83.30
2022-10-13T16:00:47.103Z,82.40
2022-10-13T16:03:15.855Z,83.10
2022-10-13T16:05:43.559Z,83.50
2022-10-13T16:08:10.652Z,83.80
2022-10-13T16:10:43.995Z,84.30
2022-10-13T16:13:15.066Z,84.30
2022-10-13T16:15:42.860Z,83.90
2022-10-13T16:18:09.577Z,82.40
2022-10-13T16:20:38.645Z,83.50
2022-10-13T16:23:05.518Z,83.60
2022-10-13T16:25:32.280Z,82.90
2022-10-13T16:27:59.445Z,83.20
2022-10-13T16:30:26.815Z,83.20
2022-10-13T16:32:53.553Z,83.70
2022-10-13T16:35:20.374Z,84.00
2022-10-13T16:37:47.176Z,83.80
2022-10-13T16:40:13.990Z,84.10
2022-10-13T16:42:42.294Z,84.50
2022-10-13T16:45:09.458Z,84.90
2022-10-13T16:47:36.218Z,84.90
2022-10-13T16:50:06.409Z,84.80
2022-10-13T16:52:33.196Z,84.90
2022-10-13T16:54:59.922Z,85.30
2022-10-13T16:57:28.628Z,85.30
2022-10-13T16:59:55.372Z,85.30
2022-10-13T17:02:22.087Z,85.40
2022-10-13T17:04:48.860Z,85.90
2022-10-13T17:07:15.609Z,86.10
2022-10-13T17:09:42.879Z,86.30
2022-10-13T17:12:09.687Z,86.70
2022-10-13T17:14:36.535Z,87.00
2022-10-13T17:17:03.299Z,87.40
2022-10-13T17:19:30.048Z,87.50
2022-10-13T17:21:56.764Z,87.70
2022-10-13T17:24:23.563Z,88.00
2022-10-13T17:26:50.270Z,88.10
2022-10-13T17:29:17.020Z,88.40
2022-10-13T17:31:43.847Z,88.70
2022-10-13T17:34:10.583Z,88.80
2022-10-13T17:36:37.658Z,88.90
2022-10-13T17:39:07.030Z,89.10
2022-10-13T17:41:34.702Z,89.20
2022-10-13T17:44:01.713Z,89.30
2022-10-13T17:46:36.893Z,89.30
2022-10-13T17:49:07.056Z,89.30
2022-10-13T17:51:33.861Z,89.30
2022-10-13T17:54:00.904Z,89.50
2022-10-13T17:56:28.793Z,89.30
2022-10-13T17:58:56.626Z,89.40
2022-10-13T18:01:29.650Z,89.80
2022-10-13T18:03:58.915Z,89.90
2022-10-13T18:06:27.429Z,89.90
2022-10-13T18:08:54.604Z,90.30
2022-10-13T18:11:23.674Z,90.30
2022-10-13T18:13:51.281Z,90.20
2022-10-13T18:16:21.006Z,90.20
2022-10-13T18:18:49.997Z,90.50
2022-10-13T18:21:19.100Z,90.60
2022-10-13T18:23:46.290Z,90.60
2022-10-13T18:26:16.404Z,90.50
2022-10-13T18:28:44.703Z,90.60
2022-10-13T18:31:13.926Z,90.50
2022-10-13T18:33:41.371Z,90.90
2022-10-13T18:36:15.921Z,91.20
2022-10-13T18:38:43.213Z,91.30
2022-10-13T18:41:09.942Z,91.30
2022-10-13T18:43:36.746Z,91.20
2022-10-13T18:46:04.965Z,91.30
2022-10-13T18:48:33.206Z,91.50
2022-10-13T18:51:12.235Z,91.60
2022-10-13T18:53:41.649Z,91.70
2022-10-13T18:56:12.394Z,91.70
2022-10-13T18:58:39.412Z,91.60
2022-10-13T19:01:09.241Z,91.60
2022-10-13T19:03:37.376Z,91.80
2022-10-13T19:06:06.397Z,91.90
2022-10-13T19:08:33.674Z,92.30
2022-10-13T19:11:01.023Z,92.30
2022-10-13T19:13:28.250Z,92.60
2022-10-13T19:16:01.718Z,92.90
2022-10-13T19:18:29.128Z,93.00
2022-10-13T19:20:56.215Z,93.00
2022-10-13T19:23:23.018Z,93.00
2022-10-13T19:25:50.355Z,93.00
2022-10-13T19:28:17.481Z,92.90
2022-10-13T19:30:44.683Z,92.90
2022-10-13T19:33:13.182Z,92.70
2022-10-13T19:35:45.382Z,92.60
2022-10-13T19:38:13.248Z,93.00
2022-10-13T19:40:49.595Z,92.70
2022-10-13T19:43:17.271Z,92.80
2022-10-13T19:45:49.332Z,93.20
2022-10-13T19:48:17.018Z,93.30
2022-10-13T19:50:43.852Z,93.30
2022-10-13T19:53:11.838Z,93.40
2022-10-13T19:55:43.493Z,93.30
2022-10-13T19:58:11.123Z,93.30
2022-10-13T20:00:37.964Z,93.30
2022-10-13T20:03:05.680Z,93.10
2022-10-13T20:05:32.612Z,93.10
2022-10-13T20:07:59.368Z,93.00
2022-10-13T20:10:26.251Z,93.00
2022-10-13T20:12:53.015Z,93.20
2022-10-13T20:15:20.143Z,93.10
2022-10-13T20:17:46.862Z,93.20
2022-10-13T20:20:13.634Z,93.30
2022-10-13T20:22:40.426Z,93.20
2022-10-13T20:25:08.026Z,93.30
2022-10-13T20:27:35.015Z,93.30
2022-10-13T20:30:01.854Z,93.40
2022-10-13T20:32:28.967Z,93.40
2022-10-13T20:34:55.686Z,93.70
2022-10-13T20:37:22.972Z,93.50
2022-10-13T20:39:49.995Z,93.50
2022-10-13T20:42:16.848Z,93.50
2022-10-13T20:44:43.577Z,93.70
2022-10-13T20:47:10.297Z,93.60
2022-10-13T20:49:37.090Z,93.50
2022-10-13T20:52:03.804Z,93.50
2022-10-13T20:54:30.504Z,93.50
2022-10-13T20:56:57.879Z,93.40
2022-10-13T20:59:24.658Z,93.40
2022-10-13T21:01:51.486Z,93.50
2022-10-13T21:04:18.479Z,93.40
2022-10-13T21:06:45.716Z,93.40
2022-10-13T21:09:12.445Z,93.40
2022-10-13T21:11:39.712Z,93.40
2022-10-13T21:14:08.458Z,93.50
2022-10-13T21:16:35.963Z,93.60
2022-10-13T21:19:03.508Z,93.60
2022-10-13T21:21:32.552Z,93.80
2022-10-13T21:24:01.626Z,93.80
2022-10-13T21:26:30.417Z,93.80
2022-10-13T21:28:57.295Z,93.90
2022-10-13T21:31:25.176Z,93.90
2022-10-13T21:33:52.116Z,93.90
2022-10-13T21:36:24.911Z,94.10
2022-10-13T21:38:54.759Z,94.00
2022-10-13T21:41:22.508Z,94.00
2022-10-13T21:43:50.087Z,93.90
2022-10-13T21:46:19.884Z,93.90
2022-10-13T21:48:47.832Z,94.00
2022-10-13T21:51:18.791Z,94.00
2022-10-13T21:53:50.875Z,93.90
2022-10-13T21:56:18.776Z,93.80
2022-10-13T21:58:46.004Z,93.90
2022-10-13T22:01:12.957Z,93.90
2022-10-13T22:03:41.536Z,93.80
2022-10-13T22:06:18.416Z,94.10
2022-10-13T22:08:47.863Z,95.00
2022-10-13T22:11:15.528Z,95.20
2022-10-13T22:13:42.352Z,94.90
2022-10-13T22:16:21.210Z,94.80
2022-10-13T22:18:48.406Z,94.70
2022-10-13T22:21:19.252Z,94.70
2022-10-13T22:23:46.658Z,94.60
2022-10-13T22:26:14.707Z,94.60
2022-10-13T22:28:42.578Z,94.60
2022-10-13T22:31:12.460Z,94.50
2022-10-13T22:33:40.690Z,94.40
2022-10-13T22:36:09.424Z,94.60
2022-10-13T22:38:36.675Z,94.70
2022-10-13T22:41:07.593Z,94.80
2022-10-13T22:43:35.282Z,94.80
2022-10-13T22:46:02.155Z,94.80
2022-10-13T22:48:28.954Z,94.80
2022-10-13T22:50:56.055Z,94.90
2022-10-13T22:53:22.776Z,95.00
2022-10-13T22:55:49.479Z,95.20
2022-10-13T22:58:16.189Z,95.10
2022-10-13T23:00:42.892Z,95.20
2022-10-13T23:03:13.792Z,95.10
2022-10-13T23:05:42.388Z,95.10
2022-10-13T23:08:09.658Z,95.10
2022-10-13T23:10:36.874Z,95.10
2022-10-13T23:13:04.636Z,95.00
2022-10-13T23:15:31.910Z,95.20
2022-10-13T23:17:58.969Z,95.00
2022-10-13T23:20:25.769Z,95.10
2022-10-13T23:22:52.546Z,95.10
2022-10-13T23:25:19.279Z,95.00
2022-10-13T23:27:45.990Z,95.10
2022-10-13T23:30:13.288Z,95.00
2022-10-13T23:32:40.119Z,95.10
2022-10-13T23:35:06.995Z,95.10
2022-10-13T23:37:33.812Z,95.10
2022-10-13T23:40:00.530Z,95.10
2022-10-13T23:42:27.217Z,95.20
2022-10-13T23:44:53.933Z,95.20
2022-10-13T23:47:20.804Z,95.20
2022-10-13T23:49:47.630Z,95.30
2022-10-13T23:52:14.374Z,95.30
2022-10-13T23:54:41.112Z,95.30
2022-10-13T23:57:07.887Z,95.20
2022-10-13T23:59:34.615Z,95.20
